Metar z połowy godziny Komunikat METAR ze strony awiacja.imgw.pl Metar G00 EPLL METAR EPLL 062330Z 25008KT 4200 -RA BR OVC003 01/01 Q1009 =